createdAt,value
2023-05-01T00:02:00.018Z,8.25
2023-05-01T00:04:26.760Z,8.68
2023-05-01T00:06:53.509Z,8.30
2023-05-01T00:09:20.289Z,8.57
2023-05-01T00:11:47.162Z,9.30
2023-05-01T00:14:13.906Z,8.18
2023-05-01T00:16:40.739Z,8.30
2023-05-01T00:19:08.328Z,8.60
2023-05-01T00:21:35.062Z,8.45
2023-05-01T00:24:01.735Z,8.90
2023-05-01T00:26:31.418Z,8.88
2023-05-01T00:28:58.503Z,8.57
2023-05-01T00:31:26.043Z,8.23
2023-05-01T00:33:52.844Z,7.45
2023-05-01T00:36:19.717Z,8.20
2023-05-01T00:38:49.207Z,7.78
2023-05-01T00:41:16.744Z,8.00
2023-05-01T00:43:43.477Z,8.02
2023-05-01T00:46:10.247Z,8.20
2023-05-01T00:48:37.530Z,7.40
2023-05-01T00:51:07.752Z,7.43
2023-05-01T00:53:34.516Z,7.93
2023-05-01T00:56:01.383Z,8.00
2023-05-01T00:58:28.178Z,7.85
2023-05-01T01:00:55.494Z,7.93
2023-05-01T01:03:22.233Z,8.07
2023-05-01T01:05:57.343Z,8.50
2023-05-01T01:08:33.973Z,8.73
2023-05-01T01:11:08.583Z,8.05
2023-05-01T01:13:58.597Z,8.40
2023-05-01T01:16:34.106Z,8.35
2023-05-01T01:19:19.438Z,8.65
2023-05-01T01:21:47.611Z,8.52
2023-05-01T01:24:36.849Z,8.77
2023-05-01T01:27:26.790Z,8.48
2023-05-01T01:30:45.123Z,8.20
2023-05-01T01:33:35.125Z,7.88
2023-05-01T01:36:05.845Z,8.38
2023-05-01T01:38:46.634Z,8.55
2023-05-01T01:41:34.342Z,9.40
2023-05-01T01:44:04.371Z,8.23
2023-05-01T01:46:31.166Z,8.73
2023-05-01T01:48:57.989Z,9.57
2023-05-01T01:51:24.692Z,8.15
2023-05-01T01:53:54.251Z,8.45
2023-05-01T01:56:22.229Z,8.82
2023-05-01T01:58:48.911Z,9.32
2023-05-01T02:01:16.255Z,8.80
2023-05-01T02:03:44.240Z,9.00
2023-05-01T02:06:11.112Z,8.32
2023-05-01T02:08:37.871Z,8.95
2023-05-01T02:11:04.686Z,8.82
2023-05-01T02:13:31.414Z,8.68
2023-05-01T02:16:01.548Z,9.02
2023-05-01T02:18:28.340Z,8.50
2023-05-01T02:20:57.320Z,8.73
2023-05-01T02:23:25.356Z,7.82
2023-05-01T02:25:52.687Z,9.73
2023-05-01T02:28:22.864Z,9.25
2023-05-01T02:30:49.595Z,8.85
2023-05-01T02:33:16.497Z,9.23
2023-05-01T02:35:44.546Z,8.65
2023-05-01T02:38:12.933Z,7.95
2023-05-01T02:40:41.122Z,8.45
2023-05-01T02:43:11.619Z,8.00
2023-05-01T02:45:39.327Z,8.27
2023-05-01T02:48:07.440Z,8.45
2023-05-01T02:50:34.865Z,8.02
2023-05-01T02:53:01.734Z,8.65
2023-05-01T02:55:28.464Z,8.88
2023-05-01T02:57:59.335Z,8.80
2023-05-01T03:00:30.136Z,10.50
2023-05-01T03:02:56.959Z,10.13
2023-05-01T03:05:23.701Z,8.73
2023-05-01T03:07:51.322Z,8.75
2023-05-01T03:10:18.358Z,8.55
2023-05-01T03:12:45.049Z,8.18
2023-05-01T03:15:12.722Z,7.15
2023-05-01T03:17:39.820Z,7.65
2023-05-01T03:20:07.296Z,7.60
2023-05-01T03:22:34.002Z,8.00
2023-05-01T03:25:01.578Z,7.57
2023-05-01T03:27:28.381Z,6.78
2023-05-01T03:29:55.395Z,8.00
2023-05-01T03:32:22.877Z,7.65
2023-05-01T03:34:49.780Z,7.75
2023-05-01T03:37:16.641Z,6.43
2023-05-01T03:39:43.344Z,7.32
2023-05-01T03:42:10.177Z,6.85
2023-05-01T03:44:37.124Z,6.57
2023-05-01T03:47:03.857Z,8.13
2023-05-01T03:49:30.505Z,7.35
2023-05-01T03:51:57.174Z,7.18
2023-05-01T03:54:24.600Z,7.13
2023-05-01T03:56:51.294Z,6.70
2023-05-01T03:59:18.228Z,7.72
2023-05-01T04:01:45.182Z,7.00
2023-05-01T04:04:12.041Z,7.43
2023-05-01T04:06:38.872Z,7.20
2023-05-01T04:09:05.715Z,6.80
2023-05-01T04:11:32.381Z,7.28
2023-05-01T04:13:59.083Z,7.15
2023-05-01T04:16:25.906Z,6.95
2023-05-01T04:18:55.345Z,7.20
2023-05-01T04:21:22.340Z,7.18
2023-05-01T04:23:51.970Z,7.03
2023-05-01T04:26:18.820Z,6.97
2023-05-01T04:28:45.721Z,7.22
2023-05-01T04:31:12.994Z,7.15
2023-05-01T04:33:39.906Z,6.72
2023-05-01T04:36:07.608Z,7.40
2023-05-01T04:38:37.150Z,7.38
2023-05-01T04:41:06.097Z,6.95
2023-05-01T04:43:32.952Z,6.38
2023-05-01T04:45:59.660Z,7.38
2023-05-01T04:48:26.471Z,7.45
2023-05-01T04:50:53.173Z,7.00
2023-05-01T04:53:19.805Z,6.88
2023-05-01T04:55:46.605Z,6.35
2023-05-01T04:58:13.339Z,7.22
2023-05-01T05:00:40.087Z,7.18
2023-05-01T05:03:06.843Z,6.82
2023-05-01T05:05:33.839Z,7.53
2023-05-01T05:08:00.561Z,6.90
2023-05-01T05:10:27.271Z,7.40
2023-05-01T05:12:54.009Z,7.13
2023-05-01T05:15:21.881Z,6.60
2023-05-01T05:17:48.650Z,6.57
2023-05-01T05:20:15.880Z,5.97
2023-05-01T05:22:42.748Z,6.05
2023-05-01T05:25:09.678Z,6.45
2023-05-01T05:27:38.394Z,6.57
2023-05-01T05:30:08.832Z,6.53
2023-05-01T05:32:35.573Z,6.53
2023-05-01T05:35:03.544Z,8.00
2023-05-01T05:37:30.454Z,7.80
2023-05-01T05:39:57.948Z,7.00
2023-05-01T05:42:24.821Z,6.63
2023-05-01T05:44:51.645Z,7.13
2023-05-01T05:47:18.394Z,6.97
2023-05-01T05:49:49.143Z,6.75
2023-05-01T05:52:15.984Z,7.22
2023-05-01T05:54:42.723Z,7.45
2023-05-01T05:57:09.443Z,6.97
2023-05-01T05:59:36.596Z,6.25
2023-05-01T06:02:03.491Z,6.60
2023-05-01T06:04:30.355Z,5.93
2023-05-01T06:06:58.015Z,5.82
2023-05-01T06:09:25.425Z,5.63
2023-05-01T06:11:52.099Z,5.25
2023-05-01T06:14:19.200Z,6.18
2023-05-01T06:16:45.881Z,5.57
2023-05-01T06:19:12.629Z,5.50
2023-05-01T06:21:39.308Z,6.18
2023-05-01T06:24:06.296Z,6.05
2023-05-01T06:26:33.058Z,6.28
2023-05-01T06:28:59.767Z,5.28
2023-05-01T06:31:27.335Z,5.20
2023-05-01T06:33:54.105Z,6.53
2023-05-01T06:36:20.834Z,5.55
2023-05-01T06:38:49.321Z,6.25
2023-05-01T06:41:16.561Z,5.10
2023-05-01T06:43:43.255Z,5.15
2023-05-01T06:46:10.189Z,4.93
2023-05-01T06:48:36.889Z,5.28
2023-05-01T06:51:03.671Z,5.75
2023-05-01T06:53:30.365Z,5.53
2023-05-01T06:55:57.199Z,5.28
2023-05-01T06:58:24.693Z,4.93
2023-05-01T07:00:52.458Z,5.72
2023-05-01T07:03:19.362Z,6.57
2023-05-01T07:05:46.192Z,6.60
2023-05-01T07:08:13.029Z,5.60
2023-05-01T07:10:41.930Z,4.95
2023-05-01T07:13:09.454Z,4.90
2023-05-01T07:15:36.205Z,5.10
2023-05-01T07:18:06.080Z,4.65
2023-05-01T07:20:33.220Z,4.55
2023-05-01T07:22:59.976Z,4.65
2023-05-01T07:25:26.691Z,4.88
2023-05-01T07:27:54.358Z,4.38
2023-05-01T07:30:21.200Z,4.63
2023-05-01T07:32:48.250Z,4.38
2023-05-01T07:35:15.135Z,4.35
2023-05-01T07:37:41.982Z,5.25
2023-05-01T07:40:08.990Z,5.25
2023-05-01T07:42:36.382Z,5.13
2023-05-01T07:45:03.532Z,5.00
2023-05-01T07:47:30.509Z,5.20
2023-05-01T07:49:57.738Z,5.82
2023-05-01T07:52:24.636Z,4.70
2023-05-01T07:54:52.317Z,5.30
2023-05-01T07:57:19.199Z,4.63
2023-05-01T07:59:45.974Z,5.53
2023-05-01T08:02:14.101Z,4.47
2023-05-01T08:04:41.909Z,4.75
2023-05-01T08:07:08.976Z,4.55
2023-05-01T08:09:38.808Z,4.45
2023-05-01T08:12:07.211Z,4.60
2023-05-01T08:14:39.351Z,4.38
2023-05-01T08:17:06.256Z,4.30
2023-05-01T08:19:33.849Z,4.30
2023-05-01T08:22:01.406Z,4.30
2023-05-01T08:24:28.222Z,4.55
2023-05-01T08:26:57.114Z,4.38
2023-05-01T08:29:23.924Z,4.32
2023-05-01T08:31:51.023Z,4.90
2023-05-01T08:34:18.349Z,4.50
2023-05-01T08:36:45.253Z,4.40
2023-05-01T08:39:12.268Z,4.95
2023-05-01T08:41:39.588Z,4.80
2023-05-01T08:44:07.150Z,4.78
2023-05-01T08:46:38.625Z,4.72
2023-05-01T08:49:05.617Z,4.78
2023-05-01T08:51:33.510Z,4.32
2023-05-01T08:54:04.807Z,4.35
2023-05-01T08:56:31.921Z,4.55
2023-05-01T08:58:59.207Z,4.88
2023-05-01T09:01:26.730Z,4.60
2023-05-01T09:03:53.523Z,4.45
2023-05-01T09:06:20.770Z,4.70
2023-05-01T09:08:47.703Z,4.35
2023-05-01T09:11:14.820Z,5.85
2023-05-01T09:13:41.645Z,5.32
2023-05-01T09:16:08.473Z,4.95
2023-05-01T09:18:35.379Z,4.53
2023-05-01T09:21:03.648Z,4.25
2023-05-01T09:23:31.977Z,4.60
2023-05-01T09:25:59.340Z,4.45
2023-05-01T09:28:47.138Z,4.35
2023-05-01T09:31:24.230Z,4.55
2023-05-01T09:33:58.168Z,4.40
2023-05-01T09:36:32.910Z,4.25
2023-05-01T09:39:00.880Z,4.47
2023-05-01T09:41:28.728Z,4.88
2023-05-01T09:43:57.577Z,4.20
2023-05-01T09:46:25.501Z,4.95
2023-05-01T09:49:00.156Z,5.18
2023-05-01T09:51:29.400Z,4.85
2023-05-01T09:54:00.399Z,6.15
2023-05-01T09:56:28.098Z,4.70
2023-05-01T09:58:55.926Z,4.93
2023-05-01T10:01:43.932Z,4.90
2023-05-01T10:04:11.010Z,4.70
2023-05-01T10:06:38.762Z,4.53
2023-05-01T10:09:17.463Z,5.68
2023-05-01T10:11:52.277Z,5.18
2023-05-01T10:14:20.463Z,5.60
2023-05-01T10:16:47.449Z,4.90
2023-05-01T10:19:15.164Z,5.40
2023-05-01T10:21:42.576Z,4.80
2023-05-01T10:24:10.262Z,5.00
2023-05-01T10:26:37.718Z,4.50
2023-05-01T10:29:04.770Z,4.95
2023-05-01T10:31:33.386Z,4.97
2023-05-01T10:34:03.214Z,4.78
2023-05-01T10:36:35.210Z,4.43
2023-05-01T10:39:02.043Z,4.90
2023-05-01T10:41:58.167Z,5.20
2023-05-01T10:44:26.955Z,4.75
2023-05-01T10:46:54.484Z,4.65
2023-05-01T10:49:21.654Z,4.72
2023-05-01T10:52:00.422Z,5.43
2023-05-01T10:54:33.592Z,5.05
2023-05-01T10:57:03.540Z,4.75
2023-05-01T11:00:05.749Z,5.90
2023-05-01T11:02:32.767Z,5.47
2023-05-01T11:05:00.105Z,5.28
2023-05-01T11:07:28.434Z,5.85
2023-05-01T11:09:57.737Z,5.80
2023-05-01T11:12:46.709Z,5.28
2023-05-01T11:15:34.199Z,6.07
2023-05-01T11:18:01.908Z,6.03
2023-05-01T11:20:29.306Z,5.43
2023-05-01T11:22:57.370Z,5.10
2023-05-01T11:25:27.293Z,5.70
2023-05-01T11:27:57.208Z,6.00
2023-05-01T11:30:24.457Z,5.20
2023-05-01T11:32:51.878Z,4.57
2023-05-01T11:35:20.987Z,5.38
2023-05-01T11:37:48.155Z,5.47
2023-05-01T11:40:22.668Z,5.32
2023-05-01T11:42:50.172Z,5.13
2023-05-01T11:45:17.663Z,5.22
2023-05-01T11:47:44.506Z,4.78
2023-05-01T11:50:11.773Z,4.78
2023-05-01T11:52:53.558Z,5.03
2023-05-01T11:55:21.370Z,5.20
2023-05-01T11:57:54.237Z,5.15
2023-05-01T12:00:31.856Z,5.10
2023-05-01T12:03:12.563Z,5.03
2023-05-01T12:05:42.545Z,5.03
2023-05-01T12:08:20.661Z,4.57
2023-05-01T12:10:49.523Z,5.63
2023-05-01T12:13:16.539Z,4.80
2023-05-01T12:15:48.698Z,4.90
2023-05-01T12:18:16.571Z,4.30
2023-05-01T12:20:48.778Z,5.45
2023-05-01T12:23:16.676Z,5.40
2023-05-01T12:25:45.043Z,5.05
2023-05-01T12:28:13.238Z,5.03
2023-05-01T12:30:40.439Z,5.82
2023-05-01T12:33:14.291Z,5.82
2023-05-01T12:35:42.202Z,5.93
2023-05-01T12:38:15.704Z,5.10
2023-05-01T12:40:59.819Z,5.00
2023-05-01T12:43:34.266Z,5.63
2023-05-01T12:46:02.006Z,4.45
2023-05-01T12:48:29.319Z,5.25
2023-05-01T12:50:56.330Z,4.93
2023-05-01T12:53:24.635Z,4.65
2023-05-01T12:55:56.748Z,5.38
2023-05-01T12:58:23.974Z,4.93
2023-05-01T13:00:53.044Z,4.70
2023-05-01T13:03:25.299Z,5.22
2023-05-01T13:06:03.296Z,4.70
2023-05-01T13:08:42.586Z,5.18
2023-05-01T13:11:16.910Z,4.90
2023-05-01T13:13:44.974Z,5.22
2023-05-01T13:16:13.271Z,5.00
2023-05-01T13:18:47.775Z,4.35
2023-05-01T13:21:17.243Z,4.93
2023-05-01T13:23:55.695Z,4.50
2023-05-01T13:26:33.785Z,5.20
2023-05-01T13:29:01.997Z,4.40
2023-05-01T13:31:29.339Z,4.30
2023-05-01T13:33:58.396Z,4.68
2023-05-01T13:36:27.243Z,4.70
2023-05-01T13:38:56.428Z,4.93
2023-05-01T13:41:25.798Z,5.10
2023-05-01T13:43:54.863Z,5.30
2023-05-01T13:46:23.028Z,5.00
2023-05-01T13:48:50.038Z,5.65
2023-05-01T13:51:24.638Z,4.47
2023-05-01T13:53:53.694Z,5.00
2023-05-01T13:56:21.854Z,4.70
2023-05-01T13:58:48.748Z,5.47
2023-05-01T14:01:16.915Z,5.63
2023-05-01T14:03:43.814Z,6.00
2023-05-01T14:06:13.506Z,6.05
2023-05-01T14:08:40.262Z,7.22
2023-05-01T14:11:08.091Z,6.40
2023-05-01T14:13:36.293Z,6.60
2023-05-01T14:16:13.256Z,7.88
2023-05-01T14:18:47.589Z,7.55
2023-05-01T14:21:18.719Z,7.07
2023-05-01T14:23:45.560Z,6.70
2023-05-01T14:26:18.513Z,6.75
2023-05-01T14:31:25.381Z,6.25
2023-05-01T14:33:56.145Z,6.70
2023-05-01T14:36:22.964Z,5.88
2023-05-01T14:38:50.773Z,5.75
2023-05-01T14:41:21.233Z,6.22
2023-05-01T14:43:51.200Z,6.30
2023-05-01T14:46:29.379Z,5.38
2023-05-01T14:49:00.360Z,5.45
2023-05-01T14:51:27.602Z,5.53
2023-05-01T14:53:54.545Z,5.35
2023-05-01T14:56:21.707Z,5.40
2023-05-01T14:58:49.424Z,6.10
2023-05-01T15:01:17.057Z,5.65
2023-05-01T15:03:48.223Z,5.72
2023-05-01T15:06:15.164Z,5.95
2023-05-01T15:08:42.820Z,5.85
2023-05-01T15:11:09.587Z,5.20
2023-05-01T15:13:36.714Z,5.18
2023-05-01T15:16:03.786Z,6.00
2023-05-01T15:18:30.721Z,6.18
2023-05-01T15:20:57.420Z,5.53
2023-05-01T15:23:27.976Z,5.18
2023-05-01T15:25:54.957Z,4.93
2023-05-01T15:28:21.655Z,5.65
2023-05-01T15:30:48.474Z,6.13
2023-05-01T15:33:18.039Z,5.45
2023-05-01T15:35:46.788Z,5.60
2023-05-01T15:38:13.449Z,5.93
2023-05-01T15:40:40.367Z,5.45
2023-05-01T15:43:09.944Z,5.38
2023-05-01T15:45:42.992Z,5.65
2023-05-01T15:48:11.341Z,5.68
2023-05-01T15:50:38.471Z,5.30
2023-05-01T15:53:05.340Z,5.22
2023-05-01T15:55:32.518Z,4.90
2023-05-01T15:57:59.674Z,5.15
2023-05-01T16:00:26.689Z,5.63
2023-05-01T16:02:53.695Z,5.70
2023-05-01T16:05:24.877Z,6.35
2023-05-01T16:07:54.352Z,8.98
2023-05-01T16:10:21.812Z,8.48
2023-05-01T16:12:50.778Z,7.90
2023-05-01T16:15:17.691Z,8.38
2023-05-01T16:17:45.483Z,8.02
2023-05-01T16:20:13.355Z,7.68
2023-05-01T16:22:43.538Z,7.30
2023-05-01T16:25:11.642Z,6.85
2023-05-01T16:27:44.553Z,7.38
2023-05-01T16:30:14.525Z,7.78
2023-05-01T16:32:41.599Z,6.57
2023-05-01T16:35:12.535Z,6.82
2023-05-01T16:37:39.832Z,6.70
2023-05-01T16:40:09.951Z,6.93
2023-05-01T16:42:38.592Z,6.47
2023-05-01T16:45:08.703Z,6.38
2023-05-01T16:47:35.819Z,6.30
2023-05-01T16:50:03.696Z,7.68
2023-05-01T16:52:30.605Z,7.18
2023-05-01T16:54:59.113Z,7.15
2023-05-01T16:57:25.879Z,5.90
2023-05-01T16:59:52.575Z,4.13
2023-05-01T17:02:19.253Z,3.97
2023-05-01T17:04:46.420Z,3.20
2023-05-01T17:07:13.433Z,2.90
2023-05-01T17:09:40.130Z,3.67
2023-05-01T17:12:07.187Z,3.05
2023-05-01T17:14:33.930Z,3.92
2023-05-01T17:17:00.837Z,4.05
2023-05-01T17:19:27.645Z,4.63
2023-05-01T17:21:54.337Z,4.47
2023-05-01T17:24:21.200Z,4.55
2023-05-01T17:26:48.024Z,5.20
2023-05-01T17:29:15.361Z,5.60
2023-05-01T17:31:42.138Z,6.18
2023-05-01T17:34:08.858Z,5.85
2023-05-01T17:36:35.795Z,5.75
2023-05-01T17:39:02.484Z,5.20
2023-05-01T17:41:29.251Z,5.53
2023-05-01T17:43:55.944Z,5.38
2023-05-01T17:46:22.961Z,5.75
2023-05-01T17:48:49.832Z,5.75
2023-05-01T17:51:16.494Z,5.63
2023-05-01T17:53:43.113Z,5.97
2023-05-01T17:56:11.285Z,6.03
2023-05-01T17:58:37.984Z,5.95
2023-05-01T18:01:04.938Z,6.07
2023-05-01T18:03:34.663Z,6.32
2023-05-01T18:06:02.601Z,6.57
2023-05-01T18:08:29.409Z,5.97
2023-05-01T18:10:56.152Z,5.75
2023-05-01T18:13:28.260Z,5.32
2023-05-01T18:15:56.159Z,5.80
2023-05-01T18:18:23.389Z,5.65
2023-05-01T18:20:50.929Z,5.50
2023-05-01T18:23:21.692Z,4.80
2023-05-01T18:25:48.775Z,4.40
2023-05-01T18:28:16.634Z,3.33
2023-05-01T18:30:43.521Z,3.60
2023-05-01T18:33:10.729Z,3.53
2023-05-01T18:35:39.713Z,3.70
2023-05-01T18:38:06.618Z,4.05
2023-05-01T18:40:33.557Z,4.18
2023-05-01T18:43:00.406Z,4.40
2023-05-01T18:45:27.495Z,3.50
2023-05-01T18:47:54.587Z,3.60
2023-05-01T18:50:22.066Z,3.42
2023-05-01T18:52:49.480Z,3.28
2023-05-01T18:55:16.793Z,3.55
2023-05-01T18:57:43.843Z,3.92
2023-05-01T19:00:13.787Z,3.60
2023-05-01T19:02:40.906Z,3.50
2023-05-01T19:05:11.260Z,3.83
2023-05-01T19:07:38.117Z,3.55
2023-05-01T19:10:05.146Z,3.60
2023-05-01T19:12:32.658Z,3.78
2023-05-01T19:14:59.506Z,3.80
2023-05-01T19:17:26.672Z,4.70
2023-05-01T19:19:53.524Z,3.60
2023-05-01T19:22:20.235Z,4.40
2023-05-01T19:24:46.941Z,4.15
2023-05-01T19:27:13.639Z,4.45
2023-05-01T19:29:40.768Z,4.53
2023-05-01T19:32:07.680Z,4.28
2023-05-01T19:34:34.496Z,4.82
2023-05-01T19:37:02.151Z,4.40
2023-05-01T19:39:29.381Z,4.53
2023-05-01T19:41:56.140Z,5.10
2023-05-01T19:44:22.877Z,5.63
2023-05-01T19:46:49.751Z,4.90
2023-05-01T19:49:16.677Z,5.40
2023-05-01T19:51:43.412Z,5.20
2023-05-01T19:54:10.516Z,5.60
2023-05-01T19:56:38.599Z,5.68
2023-05-01T19:59:05.768Z,5.75
2023-05-01T20:01:33.555Z,5.70
2023-05-01T20:04:00.688Z,5.70
2023-05-01T20:06:27.859Z,5.05
2023-05-01T20:08:54.827Z,6.30
2023-05-01T20:11:21.822Z,5.82
2023-05-01T20:13:48.686Z,6.18
2023-05-01T20:16:15.838Z,5.25
2023-05-01T20:18:42.686Z,6.00
2023-05-01T20:21:09.469Z,6.03
2023-05-01T20:23:36.251Z,6.75
2023-05-01T20:26:03.839Z,6.07
2023-05-01T20:28:30.772Z,6.45
2023-05-01T20:30:57.685Z,7.10
2023-05-01T20:33:24.743Z,7.80
2023-05-01T20:35:51.476Z,7.78
2023-05-01T20:38:18.377Z,8.65
2023-05-01T20:40:45.107Z,8.45
2023-05-01T20:43:11.949Z,8.07
2023-05-01T20:45:39.204Z,8.75
2023-05-01T20:48:06.083Z,8.98
2023-05-01T20:50:32.934Z,8.32
2023-05-01T20:52:59.627Z,8.73
2023-05-01T20:55:28.176Z,9.40
2023-05-01T20:57:54.868Z,8.43
2023-05-01T21:00:21.575Z,9.23
2023-05-01T21:02:48.450Z,8.55
2023-05-01T21:05:16.384Z,8.65
2023-05-01T21:07:43.081Z,8.98
2023-05-01T21:10:10.960Z,9.02
2023-05-01T21:12:37.851Z,9.32
2023-05-01T21:15:04.894Z,9.88
2023-05-01T21:17:32.627Z,10.15
2023-05-01T21:19:59.603Z,10.75
2023-05-01T21:22:26.619Z,9.93
2023-05-01T21:24:57.665Z,9.88
2023-05-01T21:27:25.647Z,9.10
2023-05-01T21:29:58.399Z,10.15
2023-05-01T21:35:02.563Z,9.73
2023-05-01T21:37:29.794Z,9.40
2023-05-01T21:40:01.044Z,10.07
2023-05-01T21:42:35.045Z,10.13
2023-05-01T21:45:07.005Z,11.48
2023-05-01T21:47:38.652Z,11.20
2023-05-01T21:50:15.999Z,10.75
2023-05-01T21:52:43.907Z,10.57
2023-05-01T21:55:14.048Z,10.15
2023-05-01T21:57:41.312Z,9.88
2023-05-01T22:00:12.424Z,9.10
2023-05-01T22:02:43.859Z,9.75
2023-05-01T22:05:11.290Z,9.65
2023-05-01T22:07:40.139Z,9.73
2023-05-01T22:10:10.370Z,10.13
2023-05-01T22:12:37.438Z,9.25
2023-05-01T22:15:04.490Z,10.02
2023-05-01T22:17:31.192Z,10.27
2023-05-01T22:19:58.167Z,9.57
2023-05-01T22:22:24.934Z,9.52
2023-05-01T22:24:51.636Z,8.85
2023-05-01T22:27:18.519Z,9.13
2023-05-01T22:29:45.409Z,9.27
2023-05-01T22:32:12.074Z,9.10
2023-05-01T22:34:39.036Z,8.50
2023-05-01T22:37:06.832Z,8.40
2023-05-01T22:39:36.925Z,8.90
2023-05-01T22:42:04.032Z,8.23
2023-05-01T22:44:31.124Z,7.82
2023-05-01T22:46:59.528Z,8.02
2023-05-01T22:49:28.123Z,7.88
2023-05-01T22:51:55.562Z,7.32
2023-05-01T22:54:22.321Z,7.97
2023-05-01T22:56:50.058Z,7.47
2023-05-01T22:59:17.683Z,7.93
2023-05-01T23:01:45.477Z,8.15
2023-05-01T23:04:12.981Z,7.70
2023-05-01T23:06:40.336Z,7.68
2023-05-01T23:09:07.414Z,7.50
2023-05-01T23:11:34.985Z,7.45
2023-05-01T23:14:02.152Z,8.30
2023-05-01T23:16:30.720Z,8.30
2023-05-01T23:18:57.590Z,8.30
2023-05-01T23:21:24.356Z,7.93
2023-05-01T23:23:51.099Z,8.82
2023-05-01T23:26:32.323Z,7.88
2023-05-01T23:29:00.223Z,7.88
2023-05-01T23:31:30.426Z,7.80
2023-05-01T23:33:57.151Z,8.20
2023-05-01T23:36:23.846Z,8.05
2023-05-01T23:38:50.654Z,7.78
2023-05-01T23:41:17.451Z,7.50
2023-05-01T23:43:46.666Z,8.70
2023-05-01T23:46:13.621Z,7.88
2023-05-01T23:48:40.388Z,7.88
2023-05-01T23:51:07.086Z,7.40
2023-05-01T23:53:33.736Z,8.45
2023-05-01T23:56:00.503Z,8.45
2023-05-01T23:58:27.167Z,8.57
